Time;durP1;ratioP1;P1;durP2;ratioP2;P2;SDS_P1;SDS_P2;PMS_P1;PMS_P2;Temp;Humidity;BMP_temperature;BMP_pressure;BME280_temperature;BME280_humidity;BME280_pressure;Samples;Min_cycle;Max_cycle;Signal;HPM_P1;HPM_P2
2021/01/08 00:01:42;;;;;;;59.20;24.60;;;;;;;;;;5083885;28;20465;-50
2021/01/08 00:04:09;;;;;;;54.70;22.27;;;;;;;;;;5084665;28;20067;-47
2021/01/08 00:06:36;;;;;;;45.00;19.23;;;;;;;;;;5085116;28;20394;-48
2021/01/08 00:09:02;;;;;;;48.42;19.98;;;;;;;;;;5085550;28;20062;-48
2021/01/08 00:11:28;;;;;;;37.63;16.30;;;;;;;;;;5084816;28;20032;-48
2021/01/08 00:13:54;;;;;;;40.13;17.77;;;;;;;;;;5083545;28;20086;-48
2021/01/08 00:16:20;;;;;;;34.75;16.33;;;;;;;;;;5084321;28;20027;-48
2021/01/08 00:18:46;;;;;;;34.20;14.88;;;;;;;;;;5084839;28;20055;-47
2021/01/08 00:21:13;;;;;;;37.42;14.82;;;;;;;;;;5084482;28;20816;-47
2021/01/08 00:23:39;;;;;;;33.85;13.70;;;;;;;;;;5084677;28;20016;-49
2021/01/08 00:26:05;;;;;;;25.60;12.13;;;;;;;;;;5084752;28;20020;-51
2021/01/08 00:28:31;;;;;;;25.15;11.88;;;;;;;;;;5085465;28;20020;-48
2021/01/08 00:30:57;;;;;;;27.00;12.27;;;;;;;;;;5084910;28;20028;-49
2021/01/08 00:33:23;;;;;;;25.10;12.45;;;;;;;;;;5084105;28;20089;-48
2021/01/08 00:35:49;;;;;;;27.17;12.23;;;;;;;;;;5084670;28;20032;-47
2021/01/08 00:38:15;;;;;;;26.15;12.85;;;;;;;;;;5084319;28;20326;-49
2021/01/08 00:40:41;;;;;;;24.20;12.25;;;;;;;;;;5084517;28;20052;-48
2021/01/08 00:43:07;;;;;;;18.45;10.52;;;;;;;;;;5084194;28;20446;-48
2021/01/08 00:45:33;;;;;;;22.35;11.75;;;;;;;;;;5084544;28;20035;-47
2021/01/08 00:47:59;;;;;;;23.20;12.02;;;;;;;;;;5085070;28;20046;-46
2021/01/08 00:50:25;;;;;;;18.58;10.48;;;;;;;;;;5084139;28;20483;-47
2021/01/08 00:52:51;;;;;;;22.92;12.23;;;;;;;;;;5084378;28;20505;-47
2021/01/08 00:55:17;;;;;;;21.30;11.60;;;;;;;;;;5082383;28;20020;-46
2021/01/08 00:57:44;;;;;;;20.58;11.30;;;;;;;;;;5084440;28;20059;-51
2021/01/08 01:00:11;;;;;;;20.23;10.77;;;;;;;;;;5083824;28;20028;-48
2021/01/08 01:02:37;;;;;;;19.45;10.93;;;;;;;;;;5084401;28;20024;-51
2021/01/08 01:05:03;;;;;;;17.25;9.65;;;;;;;;;;5083926;28;20131;-48
2021/01/08 01:07:30;;;;;;;15.93;9.60;;;;;;;;;;5082947;28;20056;-47
2021/01/08 01:09:56;;;;;;;17.05;9.93;;;;;;;;;;5084173;28;20024;-48
2021/01/08 01:12:22;;;;;;;19.08;10.75;;;;;;;;;;5082911;28;20123;-49
2021/01/08 01:14:48;;;;;;;20.67;10.60;;;;;;;;;;5083394;28;20448;-51
2021/01/08 01:17:14;;;;;;;16.33;9.68;;;;;;;;;;5084387;28;20024;-48
2021/01/08 01:19:40;;;;;;;17.70;9.55;;;;;;;;;;5083948;28;20097;-51
2021/01/08 01:22:06;;;;;;;15.25;8.85;;;;;;;;;;5083856;28;20501;-50
2021/01/08 01:24:32;;;;;;;17.80;9.60;;;;;;;;;;5084135;28;20032;-50
2021/01/08 01:26:58;;;;;;;16.13;9.15;;;;;;;;;;5084030;28;20517;-49
2021/01/08 01:29:24;;;;;;;16.83;9.13;;;;;;;;;;5083648;28;20541;-50
2021/01/08 01:31:52;;;;;;;18.98;10.10;;;;;;;;;;5082958;28;20507;-47
2021/01/08 01:34:18;;;;;;;20.70;11.52;;;;;;;;;;5083351;28;20066;-49
2021/01/08 01:36:45;;;;;;;17.45;10.10;;;;;;;;;;5084495;28;20406;-50
2021/01/08 01:39:11;;;;;;;17.70;9.88;;;;;;;;;;5084505;28;20089;-51
2021/01/08 01:41:38;;;;;;;19.00;10.48;;;;;;;;;;5083683;28;20028;-51
2021/01/08 01:44:04;;;;;;;20.52;11.25;;;;;;;;;;5084354;28;20016;-52
2021/01/08 01:46:30;;;;;;;20.25;11.30;;;;;;;;;;5083581;28;20016;-48
2021/01/08 01:48:56;;;;;;;20.48;11.00;;;;;;;;;;5083732;28;20028;-48
2021/01/08 01:51:22;;;;;;;20.20;11.65;;;;;;;;;;5083748;28;20089;-49
2021/01/08 01:53:49;;;;;;;24.02;12.00;;;;;;;;;;5083762;28;20067;-52
2021/01/08 01:56:16;;;;;;;19.88;11.82;;;;;;;;;;5082705;28;20396;-48
2021/01/08 01:58:42;;;;;;;19.55;10.85;;;;;;;;;;5084079;28;20032;-51
2021/01/08 02:01:10;;;;;;;19.23;10.57;;;;;;;;;;5083616;28;20139;-50
2021/01/08 02:03:39;;;;;;;18.15;9.95;;;;;;;;;;5083959;28;20024;-49
2021/01/08 02:06:09;;;;;;;20.65;11.43;;;;;;;;;;5083537;28;20563;-49
2021/01/08 02:08:36;;;;;;;17.23;10.05;;;;;;;;;;5085642;28;20024;-50
2021/01/08 02:11:05;;;;;;;20.45;10.82;;;;;;;;;;5086828;28;20394;-47
2021/01/08 02:13:51;;;;;;;20.38;11.25;;;;;;;;;;5086059;28;20039;-48
2021/01/08 02:16:18;;;;;;;17.15;9.90;;;;;;;;;;5086919;28;20433;-49
2021/01/08 02:18:45;;;;;;;17.95;10.05;;;;;;;;;;5086065;28;20030;-50
2021/01/08 02:21:13;;;;;;;23.85;11.63;;;;;;;;;;5087444;28;20028;-48
2021/01/08 02:23:51;;;;;;;22.90;11.35;;;;;;;;;;5087201;28;20509;-50
2021/01/08 02:26:18;;;;;;;18.33;10.02;;;;;;;;;;5086828;28;20108;-49
2021/01/08 02:28:45;;;;;;;19.67;10.27;;;;;;;;;;5087766;28;20423;-50
2021/01/08 02:31:12;;;;;;;23.42;11.27;;;;;;;;;;5087394;28;20475;-50
2021/01/08 02:33:38;;;;;;;18.92;10.07;;;;;;;;;;5086780;28;20042;-49
2021/01/08 02:36:04;;;;;;;18.73;10.40;;;;;;;;;;5085713;28;20020;-51
2021/01/08 02:38:30;;;;;;;18.15;9.90;;;;;;;;;;5086631;28;20032;-50
2021/01/08 02:40:57;;;;;;;18.10;9.40;;;;;;;;;;5087017;28;20031;-48
2021/01/08 02:43:24;;;;;;;18.88;10.15;;;;;;;;;;5086420;28;20064;-50
2021/01/08 02:45:51;;;;;;;20.60;10.45;;;;;;;;;;5086580;28;20069;-51
2021/01/08 02:48:19;;;;;;;17.00;9.20;;;;;;;;;;5086086;28;20027;-47
2021/01/08 02:50:46;;;;;;;17.02;9.15;;;;;;;;;;5086632;28;20112;-47
2021/01/08 02:53:14;;;;;;;19.05;10.38;;;;;;;;;;5086813;28;20024;-47
2021/01/08 02:55:42;;;;;;;18.73;9.82;;;;;;;;;;5085797;28;20028;-47
2021/01/08 02:58:08;;;;;;;18.33;10.05;;;;;;;;;;5086572;28;20024;-50
2021/01/08 03:00:34;;;;;;;18.52;9.88;;;;;;;;;;5085422;28;20042;-48
2021/01/08 03:03:01;;;;;;;20.45;10.55;;;;;;;;;;5086142;28;20020;-50
2021/01/08 03:05:28;;;;;;;19.38;10.85;;;;;;;;;;5086077;28;20448;-49
2021/01/08 03:07:55;;;;;;;19.73;10.80;;;;;;;;;;5086130;28;20435;-48
2021/01/08 03:10:23;;;;;;;20.05;11.23;;;;;;;;;;5085370;28;20103;-47
2021/01/08 03:12:59;;;;;;;18.17;9.70;;;;;;;;;;5085704;28;20401;-47
2021/01/08 03:15:25;;;;;;;17.23;9.50;;;;;;;;;;5085176;28;20024;-47
2021/01/08 03:17:52;;;;;;;17.35;10.20;;;;;;;;;;5085787;28;20112;-48
2021/01/08 03:20:18;;;;;;;18.45;9.65;;;;;;;;;;5084625;28;20028;-49
2021/01/08 03:22:45;;;;;;;16.42;9.52;;;;;;;;;;5086660;28;20043;-48
2021/01/08 03:25:11;;;;;;;17.58;9.82;;;;;;;;;;5086237;28;20024;-48
2021/01/08 03:27:37;;;;;;;16.35;9.55;;;;;;;;;;5085831;28;20434;-47
2021/01/08 03:30:05;;;;;;;21.00;10.30;;;;;;;;;;5084049;28;20028;-50
2021/01/08 03:32:31;;;;;;;17.63;9.52;;;;;;;;;;5085092;28;20084;-46
2021/01/08 03:34:57;;;;;;;19.75;10.70;;;;;;;;;;5085808;28;20335;-47
2021/01/08 03:37:23;;;;;;;16.20;9.50;;;;;;;;;;5085274;28;20032;-46
2021/01/08 03:39:49;;;;;;;17.40;9.85;;;;;;;;;;5085530;28;20027;-49
2021/01/08 03:42:15;;;;;;;18.90;10.00;;;;;;;;;;5085651;28;20123;-49
2021/01/08 03:44:41;;;;;;;29.55;14.88;;;;;;;;;;5085724;28;20024;-49
2021/01/08 03:47:07;;;;;;;38.05;19.25;;;;;;;;;;5084935;28;20028;-47
2021/01/08 03:49:39;;;;;;;34.42;17.95;;;;;;;;;;5085336;28;20588;-48
2021/01/08 03:52:06;;;;;;;32.95;16.35;;;;;;;;;;5085679;28;20081;-49
2021/01/08 03:54:32;;;;;;;26.20;13.85;;;;;;;;;;5085103;28;20039;-48
2021/01/08 03:56:58;;;;;;;24.50;13.05;;;;;;;;;;5085341;28;20036;-49
2021/01/08 03:59:24;;;;;;;24.13;13.10;;;;;;;;;;5084919;28;20024;-50
2021/01/08 04:01:50;;;;;;;22.55;11.52;;;;;;;;;;5084904;28;20497;-51
2021/01/08 04:04:16;;;;;;;20.42;10.90;;;;;;;;;;5084806;28;20031;-50
2021/01/08 04:06:42;;;;;;;19.15;10.13;;;;;;;;;;5085799;28;20114;-48
2021/01/08 04:09:08;;;;;;;18.27;9.68;;;;;;;;;;5084658;28;20442;-49
2021/01/08 04:11:34;;;;;;;16.15;8.60;;;;;;;;;;5083870;28;20038;-47
2021/01/08 04:14:00;;;;;;;20.08;9.77;;;;;;;;;;5084496;28;20096;-52
2021/01/08 04:16:36;;;;;;;20.92;10.52;;;;;;;;;;5084283;28;20448;-48
2021/01/08 04:19:03;;;;;;;22.52;10.20;;;;;;;;;;5084034;28;20024;-50
2021/01/08 04:21:29;;;;;;;17.58;9.80;;;;;;;;;;5084483;28;20039;-50
2021/01/08 04:23:55;;;;;;;22.13;10.88;;;;;;;;;;5084959;28;20028;-48
2021/01/08 04:26:21;;;;;;;22.10;12.07;;;;;;;;;;5084390;28;20094;-48
2021/01/08 04:28:47;;;;;;;20.42;10.65;;;;;;;;;;5084603;28;20085;-50
2021/01/08 04:31:14;;;;;;;22.58;11.45;;;;;;;;;;5084533;28;20032;-50
2021/01/08 04:33:40;;;;;;;21.13;11.25;;;;;;;;;;5084644;28;20074;-50
2021/01/08 04:36:08;;;;;;;19.42;10.38;;;;;;;;;;5084359;28;20248;-51
2021/01/08 04:38:34;;;;;;;20.58;11.20;;;;;;;;;;5084888;28;20034;-48
2021/01/08 04:41:00;;;;;;;19.38;10.73;;;;;;;;;;5084294;28;20028;-47
2021/01/08 04:43:26;;;;;;;19.73;10.90;;;;;;;;;;5084349;28;20081;-47
2021/01/08 04:45:52;;;;;;;18.67;10.48;;;;;;;;;;5084291;28;20028;-47
2021/01/08 04:48:18;;;;;;;21.63;10.65;;;;;;;;;;5084268;28;20082;-50
2021/01/08 04:50:45;;;;;;;18.60;10.10;;;;;;;;;;5085082;28;20032;-47
2021/01/08 04:53:12;;;;;;;17.55;10.02;;;;;;;;;;5085907;28;20035;-50
2021/01/08 04:55:39;;;;;;;18.13;10.20;;;;;;;;;;5105022;28;20038;-47
2021/01/08 04:58:08;;;;;;;21.60;11.13;;;;;;;;;;5101063;28;20490;-51
2021/01/08 05:00:35;;;;;;;21.73;11.40;;;;;;;;;;5084107;28;20032;-49
2021/01/08 05:03:01;;;;;;;26.98;13.95;;;;;;;;;;5084325;28;20025;-47
2021/01/08 05:05:27;;;;;;;25.05;13.23;;;;;;;;;;5084568;28;20024;-48
2021/01/08 05:07:53;;;;;;;24.63;12.85;;;;;;;;;;5085677;28;20021;-49
2021/01/08 05:10:20;;;;;;;22.17;12.25;;;;;;;;;;5084711;28;20446;-50
2021/01/08 05:12:51;;;;;;;21.63;11.25;;;;;;;;;;5083164;28;20051;-49
2021/01/08 05:15:17;;;;;;;21.38;11.80;;;;;;;;;;5077058;28;20027;-47
2021/01/08 05:17:44;;;;;;;20.38;10.80;;;;;;;;;;5065824;28;20017;-48
2021/01/08 05:20:11;;;;;;;22.10;11.85;;;;;;;;;;5065726;28;20036;-47
2021/01/08 05:22:38;;;;;;;20.05;11.48;;;;;;;;;;5065480;28;20032;-51
2021/01/08 05:25:11;;;;;;;22.95;11.60;;;;;;;;;;5065445;28;20035;-49
2021/01/08 05:27:38;;;;;;;23.17;12.60;;;;;;;;;;5065588;28;20025;-47
2021/01/08 05:30:12;;;;;;;23.88;12.73;;;;;;;;;;5080772;28;20036;-48
2021/01/08 05:32:38;;;;;;;23.20;11.90;;;;;;;;;;5085772;28;20078;-46
2021/01/08 05:35:05;;;;;;;22.55;11.63;;;;;;;;;;5085765;28;20020;-48
2021/01/08 05:37:31;;;;;;;23.17;11.85;;;;;;;;;;5085277;28;20035;-50
2021/01/08 05:40:06;;;;;;;19.80;10.90;;;;;;;;;;5085642;28;20039;-49
2021/01/08 05:42:32;;;;;;;23.95;13.52;;;;;;;;;;5085468;28;20032;-50
2021/01/08 05:44:58;;;;;;;24.42;13.15;;;;;;;;;;5089375;28;20606;-47
2021/01/08 05:47:24;;;;;;;26.65;13.55;;;;;;;;;;5089390;28;20512;-48
2021/01/08 05:49:50;;;;;;;24.33;12.43;;;;;;;;;;5089612;28;20031;-52
2021/01/08 05:52:16;;;;;;;22.17;11.77;;;;;;;;;;5089656;28;20031;-48
2021/01/08 05:54:44;;;;;;;26.08;13.32;;;;;;;;;;5089422;28;20043;-49
2021/01/08 05:57:10;;;;;;;27.05;13.95;;;;;;;;;;5089269;28;20035;-49
2021/01/08 05:59:37;;;;;;;25.45;12.82;;;;;;;;;;5089399;28;20434;-46
2021/01/08 06:02:06;;;;;;;19.60;11.70;;;;;;;;;;5088345;28;20032;-50
2021/01/08 06:04:33;;;;;;;19.80;11.40;;;;;;;;;;5089156;28;20509;-50
2021/01/08 06:07:15;;;;;;;23.50;11.18;;;;;;;;;;5089190;28;20020;-49
2021/01/08 06:09:44;;;;;;;22.95;11.80;;;;;;;;;;5086862;28;20055;-48
2021/01/08 06:12:12;;;;;;;23.88;12.82;;;;;;;;;;5086877;28;20027;-48
2021/01/08 06:14:38;;;;;;;24.88;13.10;;;;;;;;;;5086753;28;20081;-47
2021/01/08 06:17:04;;;;;;;27.33;13.65;;;;;;;;;;5086877;28;20043;-46
2021/01/08 06:19:30;;;;;;;31.95;15.15;;;;;;;;;;5086994;28;20030;-49
2021/01/08 06:21:57;;;;;;;31.08;15.20;;;;;;;;;;5087518;28;20111;-47
2021/01/08 06:24:25;;;;;;;27.98;14.32;;;;;;;;;;5086950;28;20441;-52
2021/01/08 06:26:51;;;;;;;29.38;14.32;;;;;;;;;;5087478;28;20089;-51
2021/01/08 06:29:21;;;;;;;32.00;16.20;;;;;;;;;;5087232;28;20027;-47
2021/01/08 06:31:50;;;;;;;26.80;13.75;;;;;;;;;;5087465;28;20374;-51
2021/01/08 06:34:22;;;;;;;27.23;13.98;;;;;;;;;;5087575;28;20100;-50
2021/01/08 06:36:59;;;;;;;25.48;13.65;;;;;;;;;;5087399;28;20028;-48
2021/01/08 06:39:29;;;;;;;25.27;13.48;;;;;;;;;;5086609;28;20510;-48
2021/01/08 06:41:56;;;;;;;26.20;13.48;;;;;;;;;;5086618;28;20024;-50
2021/01/08 06:44:27;;;;;;;22.80;12.07;;;;;;;;;;5086379;28;20085;-48
2021/01/08 06:46:54;;;;;;;25.05;13.27;;;;;;;;;;5086675;28;20538;-50
2021/01/08 06:49:21;;;;;;;25.38;11.85;;;;;;;;;;5086274;28;20399;-48
2021/01/08 06:51:48;;;;;;;24.95;12.15;;;;;;;;;;5087267;28;20081;-48
2021/01/08 06:54:14;;;;;;;24.98;11.80;;;;;;;;;;5086827;28;20028;-47
2021/01/08 06:56:42;;;;;;;26.65;13.02;;;;;;;;;;5086353;28;20032;-47
2021/01/08 06:59:09;;;;;;;26.00;12.40;;;;;;;;;;5086185;28;20032;-47
2021/01/08 07:01:36;;;;;;;23.38;11.23;;;;;;;;;;5086135;28;20107;-50
2021/01/08 07:04:02;;;;;;;21.42;11.05;;;;;;;;;;5086339;28;20302;-50
2021/01/08 07:06:28;;;;;;;27.42;13.93;;;;;;;;;;5085918;28;20024;-49
2021/01/08 07:08:54;;;;;;;34.38;17.38;;;;;;;;;;5086336;28;20024;-48
2021/01/08 07:11:26;;;;;;;37.67;18.50;;;;;;;;;;5086040;28;20486;-50
2021/01/08 07:14:04;;;;;;;36.45;18.73;;;;;;;;;;5085766;28;20391;-51
2021/01/08 07:16:30;;;;;;;31.13;15.55;;;;;;;;;;5084406;28;20474;-47
2021/01/08 07:19:04;;;;;;;29.10;15.40;;;;;;;;;;5085781;28;20556;-47
2021/01/08 07:21:30;;;;;;;29.35;15.25;;;;;;;;;;5085727;28;20051;-47
2021/01/08 07:23:56;;;;;;;28.15;16.08;;;;;;;;;;5085921;28;20485;-47
2021/01/08 07:26:26;;;;;;;26.77;14.95;;;;;;;;;;5085812;28;20086;-48
2021/01/08 07:28:53;;;;;;;32.85;17.17;;;;;;;;;;5084974;28;20028;-50
2021/01/08 07:31:27;;;;;;;35.40;17.95;;;;;;;;;;5085336;28;20035;-50
2021/01/08 07:33:53;;;;;;;30.92;16.55;;;;;;;;;;5085517;28;20585;-46
2021/01/08 07:36:24;;;;;;;31.88;15.98;;;;;;;;;;5085292;28;20115;-48
2021/01/08 07:38:50;;;;;;;32.28;16.55;;;;;;;;;;5085831;28;20489;-47
2021/01/08 07:41:36;;;;;;;36.58;19.00;;;;;;;;;;5085829;28;20347;-47
2021/01/08 07:44:03;;;;;;;43.83;20.02;;;;;;;;;;5085142;28;20028;-49
2021/01/08 07:46:29;;;;;;;50.83;21.65;;;;;;;;;;5083742;28;20497;-49
2021/01/08 07:48:56;;;;;;;46.47;21.80;;;;;;;;;;5084474;28;20074;-50
2021/01/08 07:51:23;;;;;;;115.88;36.97;;;;;;;;;;5085220;28;20036;-50
2021/01/08 07:53:50;;;;;;;163.88;51.13;;;;;;;;;;5085308;28;20028;-47
2021/01/08 07:56:16;;;;;;;147.30;45.70;;;;;;;;;;5085475;28;20066;-50
2021/01/08 07:58:44;;;;;;;91.63;32.90;;;;;;;;;;5085005;28;20502;-50
2021/01/08 08:01:11;;;;;;;71.50;27.33;;;;;;;;;;5085233;28;20055;-49
2021/01/08 08:03:38;;;;;;;52.80;20.65;;;;;;;;;;5085183;28;20024;-48
2021/01/08 08:06:05;;;;;;;40.78;16.60;;;;;;;;;;5084953;28;20429;-48
2021/01/08 08:08:32;;;;;;;38.75;16.58;;;;;;;;;;5085202;28;20020;-47
2021/01/08 08:11:15;;;;;;;30.70;14.25;;;;;;;;;;5085127;28;20082;-47
2021/01/08 08:13:44;;;;;;;29.05;14.50;;;;;;;;;;5083447;28;20521;-47
2021/01/08 08:16:10;;;;;;;27.83;12.73;;;;;;;;;;5084476;28;20517;-46
2021/01/08 08:18:49;;;;;;;27.17;13.77;;;;;;;;;;5084888;28;20032;-47
2021/01/08 08:21:16;;;;;;;27.33;13.02;;;;;;;;;;5085279;28;20032;-49
2021/01/08 08:23:50;;;;;;;27.48;13.18;;;;;;;;;;5084853;28;20499;-48
2021/01/08 08:26:17;;;;;;;25.50;12.85;;;;;;;;;;5085261;28;20036;-47
2021/01/08 08:28:43;;;;;;;36.25;14.85;;;;;;;;;;5083803;28;20027;-50
2021/01/08 08:31:09;;;;;;;33.55;13.38;;;;;;;;;;5085902;28;20517;-47
2021/01/08 08:33:35;;;;;;;32.13;13.13;;;;;;;;;;5083157;28;20619;-48
2021/01/08 08:36:01;;;;;;;45.80;15.55;;;;;;;;;;5086254;28;20090;-49
2021/01/08 08:38:27;;;;;;;48.97;17.90;;;;;;;;;;5084224;28;20043;-50
2021/01/08 08:40:53;;;;;;;48.60;16.15;;;;;;;;;;5086357;28;20036;-50
2021/01/08 08:43:21;;;;;;;38.30;14.13;;;;;;;;;;5085868;28;20101;-47
2021/01/08 08:45:47;;;;;;;35.50;15.10;;;;;;;;;;5086708;28;20661;-50
2021/01/08 08:48:14;;;;;;;29.50;12.95;;;;;;;;;;5086050;28;20020;-47
2021/01/08 08:50:43;;;;;;;27.42;12.70;;;;;;;;;;5086255;28;20028;-50
2021/01/08 08:53:10;;;;;;;26.23;11.55;;;;;;;;;;5085876;28;20022;-50
2021/01/08 08:55:36;;;;;;;22.73;11.13;;;;;;;;;;5086279;28;20059;-47
2021/01/08 08:58:03;;;;;;;23.17;11.27;;;;;;;;;;5084443;28;20089;-47
2021/01/08 09:00:29;;;;;;;25.63;11.25;;;;;;;;;;5083490;28;20059;-48
2021/01/08 09:02:55;;;;;;;20.02;10.73;;;;;;;;;;5086172;28;20012;-47
2021/01/08 09:05:21;;;;;;;20.90;9.98;;;;;;;;;;5086068;28;20020;-48
2021/01/08 09:07:55;;;;;;;20.77;11.70;;;;;;;;;;5086484;28;20125;-48
2021/01/08 09:10:21;;;;;;;22.35;11.57;;;;;;;;;;5078411;28;20600;-48
2021/01/08 09:12:47;;;;;;;25.02;12.18;;;;;;;;;;5066536;28;20021;-47
2021/01/08 09:15:19;;;;;;;22.38;11.68;;;;;;;;;;5068766;28;20028;-47
2021/01/08 09:17:47;;;;;;;25.08;12.10;;;;;;;;;;5075913;28;20032;-47
2021/01/08 09:20:15;;;;;;;20.85;10.15;;;;;;;;;;5089555;28;20024;-47
2021/01/08 09:22:41;;;;;;;23.98;11.75;;;;;;;;;;5089750;28;20031;-48
2021/01/08 09:25:08;;;;;;;21.05;11.05;;;;;;;;;;5089457;28;20024;-50
2021/01/08 09:27:35;;;;;;;21.60;10.95;;;;;;;;;;5089545;28;20409;-47
2021/01/08 09:30:08;;;;;;;21.55;10.77;;;;;;;;;;5088091;28;20031;-48
2021/01/08 09:32:35;;;;;;;20.80;9.33;;;;;;;;;;5088771;28;20414;-47
2021/01/08 09:35:02;;;;;;;20.42;11.07;;;;;;;;;;5090269;28;20456;-50
2021/01/08 09:37:33;;;;;;;22.60;10.98;;;;;;;;;;5089573;28;20025;-49
2021/01/08 09:39:59;;;;;;;18.13;10.23;;;;;;;;;;5089531;28;20063;-47
2021/01/08 09:42:26;;;;;;;21.70;11.82;;;;;;;;;;5082607;28;20417;-47
2021/01/08 09:44:52;;;;;;;20.45;10.23;;;;;;;;;;5083937;28;20028;-49
2021/01/08 09:47:18;;;;;;;17.30;9.98;;;;;;;;;;5088244;28;20035;-48
2021/01/08 09:49:52;;;;;;;19.15;10.35;;;;;;;;;;5088570;28;20157;-51
2021/01/08 09:52:18;;;;;;;18.20;9.70;;;;;;;;;;5087862;28;20032;-49
2021/01/08 09:54:44;;;;;;;21.48;10.68;;;;;;;;;;5087355;28;20039;-51
2021/01/08 09:57:11;;;;;;;21.02;10.43;;;;;;;;;;5087327;28;20043;-47
2021/01/08 09:59:37;;;;;;;21.80;10.40;;;;;;;;;;5089235;28;20113;-52
2021/01/08 10:02:08;;;;;;;20.63;10.50;;;;;;;;;;5089124;28;20031;-48
2021/01/08 10:04:36;;;;;;;21.13;10.23;;;;;;;;;;5086687;28;20104;-48
2021/01/08 10:07:06;;;;;;;19.95;9.73;;;;;;;;;;5082541;28;20537;-51
2021/01/08 10:09:51;;;;;;;24.50;11.32;;;;;;;;;;5085863;28;20404;-50
2021/01/08 10:12:24;;;;;;;20.13;9.25;;;;;;;;;;5088016;28;20035;-50
2021/01/08 10:14:50;;;;;;;19.63;9.82;;;;;;;;;;5088528;28;20351;-47
2021/01/08 10:17:17;;;;;;;20.73;10.60;;;;;;;;;;5089100;28;20161;-50
2021/01/08 10:19:44;;;;;;;21.02;10.90;;;;;;;;;;5088562;28;20028;-49
2021/01/08 10:22:10;;;;;;;22.02;11.20;;;;;;;;;;5088811;28;20608;-50
2021/01/08 10:24:38;;;;;;;21.20;11.52;;;;;;;;;;5088668;28;20012;-50
2021/01/08 10:27:04;;;;;;;23.40;11.35;;;;;;;;;;5088775;28;20028;-47
2021/01/08 10:29:31;;;;;;;20.48;10.43;;;;;;;;;;5085419;28;20398;-46
2021/01/08 10:32:04;;;;;;;19.67;10.27;;;;;;;;;;5076585;28;20024;-49
2021/01/08 10:34:32;;;;;;;19.00;9.68;;;;;;;;;;5081384;28;20032;-46
2021/01/08 10:36:58;;;;;;;17.50;10.00;;;;;;;;;;5080947;28;20025;-47
2021/01/08 10:39:24;;;;;;;19.67;9.73;;;;;;;;;;5080854;28;20027;-50
2021/01/08 10:41:50;;;;;;;17.65;8.73;;;;;;;;;;5081530;28;20040;-47
2021/01/08 10:44:17;;;;;;;17.70;8.70;;;;;;;;;;5086991;28;20032;-51
2021/01/08 10:46:43;;;;;;;18.02;8.90;;;;;;;;;;5086750;28;20024;-45
2021/01/08 10:49:10;;;;;;;16.60;8.80;;;;;;;;;;5084764;28;20031;-48
2021/01/08 10:51:36;;;;;;;13.80;7.57;;;;;;;;;;5067579;28;20028;-50
2021/01/08 10:54:02;;;;;;;16.45;8.80;;;;;;;;;;5074916;28;20060;-47
2021/01/08 10:56:31;;;;;;;16.27;9.02;;;;;;;;;;5082624;28;20039;-48
2021/01/08 10:58:57;;;;;;;16.50;9.18;;;;;;;;;;5086607;28;20497;-47
2021/01/08 11:01:24;;;;;;;16.67;8.65;;;;;;;;;;5085956;28;20517;-47
2021/01/08 11:03:50;;;;;;;14.60;8.45;;;;;;;;;;5086783;28;20128;-49
2021/01/08 11:06:17;;;;;;;14.35;8.20;;;;;;;;;;5086802;28;20023;-48
2021/01/08 11:08:43;;;;;;;15.25;7.82;;;;;;;;;;5087100;28;20085;-47
2021/01/08 11:11:09;;;;;;;14.57;7.70;;;;;;;;;;5086256;28;20863;-47
2021/01/08 11:13:36;;;;;;;13.38;7.90;;;;;;;;;;5086140;28;20046;-46
2021/01/08 11:16:02;;;;;;;15.18;8.10;;;;;;;;;;5083981;28;20031;-48
2021/01/08 11:18:29;;;;;;;15.07;8.27;;;;;;;;;;5066055;28;20078;-46
2021/01/08 11:20:55;;;;;;;16.65;8.38;;;;;;;;;;5066072;28;20025;-48
2021/01/08 11:23:21;;;;;;;16.52;8.45;;;;;;;;;;5065932;28;20062;-47
2021/01/08 11:25:47;;;;;;;14.38;8.07;;;;;;;;;;5066745;28;20418;-46
2021/01/08 11:28:13;;;;;;;13.30;7.95;;;;;;;;;;5065855;28;20032;-47
2021/01/08 11:30:39;;;;;;;14.60;8.50;;;;;;;;;;5066018;28;20596;-50
2021/01/08 11:33:05;;;;;;;14.35;8.10;;;;;;;;;;5065987;28;20039;-46
2021/01/08 11:35:31;;;;;;;14.90;8.93;;;;;;;;;;5072048;28;20412;-49
2021/01/08 11:37:57;;;;;;;14.35;7.85;;;;;;;;;;5085400;28;20456;-48
2021/01/08 11:40:23;;;;;;;16.67;8.48;;;;;;;;;;5084266;28;20540;-50
2021/01/08 11:42:50;;;;;;;15.95;8.32;;;;;;;;;;5063027;28;617006;-46
2021/01/08 11:45:17;;;;;;;18.08;8.68;;;;;;;;;;5085362;28;20034;-46
2021/01/08 11:47:43;;;;;;;18.77;8.75;;;;;;;;;;5084880;28;20059;-47
2021/01/08 11:50:09;;;;;;;20.25;9.15;;;;;;;;;;5084568;28;20028;-46
2021/01/08 11:52:35;;;;;;;16.83;8.25;;;;;;;;;;5084746;28;20028;-47
2021/01/08 11:55:01;;;;;;;16.00;8.30;;;;;;;;;;5083602;28;20020;-48
2021/01/08 11:57:27;;;;;;;17.77;8.80;;;;;;;;;;5084228;28;20024;-50
2021/01/08 11:59:53;;;;;;;13.25;7.10;;;;;;;;;;5084535;28;20023;-51
2021/01/08 12:02:19;;;;;;;15.80;8.10;;;;;;;;;;5082610;28;20039;-49
2021/01/08 12:04:47;;;;;;;14.00;7.50;;;;;;;;;;5084063;28;20024;-48
2021/01/08 12:07:14;;;;;;;14.23;7.93;;;;;;;;;;5065607;28;20021;-48
2021/01/08 12:09:40;;;;;;;15.60;7.72;;;;;;;;;;5064507;28;20275;-46
2021/01/08 12:12:07;;;;;;;15.93;7.80;;;;;;;;;;5063893;28;20039;-46
2021/01/08 12:14:33;;;;;;;15.65;8.50;;;;;;;;;;5078346;28;20035;-47
2021/01/08 12:17:05;;;;;;;20.10;9.27;;;;;;;;;;5084402;28;20039;-49
2021/01/08 12:19:32;;;;;;;18.20;8.68;;;;;;;;;;5076459;28;20040;-49
2021/01/08 12:21:58;;;;;;;18.65;9.40;;;;;;;;;;5062866;28;20028;-51
2021/01/08 12:24:24;;;;;;;16.75;8.43;;;;;;;;;;5069595;28;20540;-51
2021/01/08 12:26:53;;;;;;;15.98;7.38;;;;;;;;;;5082746;28;20267;-51
2021/01/08 12:29:19;;;;;;;15.15;7.78;;;;;;;;;;5083588;28;20103;-48
2021/01/08 12:31:45;;;;;;;13.13;6.85;;;;;;;;;;5083491;28;20498;-49
2021/01/08 12:34:11;;;;;;;12.45;7.10;;;;;;;;;;5083663;28;20414;-47
2021/01/08 12:36:37;;;;;;;12.38;6.45;;;;;;;;;;5082920;28;20517;-50
2021/01/08 12:39:04;;;;;;;12.95;6.88;;;;;;;;;;5083779;28;20223;-52
2021/01/08 12:41:30;;;;;;;12.15;6.60;;;;;;;;;;5083670;28;20028;-50
2021/01/08 12:43:56;;;;;;;12.98;6.82;;;;;;;;;;5075739;28;20043;-50
2021/01/08 12:46:22;;;;;;;11.13;6.40;;;;;;;;;;5063055;28;20486;-50
2021/01/08 12:48:48;;;;;;;11.48;6.47;;;;;;;;;;5064128;28;20494;-48
2021/01/08 12:51:15;;;;;;;11.23;5.55;;;;;;;;;;5069599;28;20520;-48
2021/01/08 12:53:42;;;;;;;9.73;5.60;;;;;;;;;;5083539;28;20028;-47
2021/01/08 12:56:08;;;;;;;9.30;5.38;;;;;;;;;;5083291;28;20066;-48
2021/01/08 12:58:34;;;;;;;10.85;6.40;;;;;;;;;;5082320;28;20024;-52
2021/01/08 13:01:00;;;;;;;9.82;6.10;;;;;;;;;;5083664;28;20462;-53
2021/01/08 13:03:26;;;;;;;9.05;5.63;;;;;;;;;;5083454;28;20090;-49
2021/01/08 13:05:52;;;;;;;9.00;5.38;;;;;;;;;;5083288;28;20031;-50
2021/01/08 13:08:18;;;;;;;7.47;4.68;;;;;;;;;;5082671;28;20027;-48
2021/01/08 13:10:44;;;;;;;10.90;5.45;;;;;;;;;;5073777;28;20234;-49
2021/01/08 13:13:11;;;;;;;12.05;6.93;;;;;;;;;;5070447;28;20024;-47
2021/01/08 13:15:37;;;;;;;9.07;5.30;;;;;;;;;;5081710;28;20028;-51
2021/01/08 13:18:03;;;;;;;10.18;5.80;;;;;;;;;;5083393;28;20024;-47
2021/01/08 13:20:30;;;;;;;9.60;5.18;;;;;;;;;;5083256;28;20075;-49
2021/01/08 13:22:56;;;;;;;9.23;5.30;;;;;;;;;;5080003;28;20114;-49
2021/01/08 13:25:22;;;;;;;8.57;4.88;;;;;;;;;;5063097;28;20056;-48
2021/01/08 13:27:49;;;;;;;9.70;5.75;;;;;;;;;;5064121;28;20032;-47
2021/01/08 13:30:15;;;;;;;11.57;6.82;;;;;;;;;;5063785;28;20029;-49
2021/01/08 13:32:42;;;;;;;8.30;5.05;;;;;;;;;;5063322;28;20082;-48
2021/01/08 13:35:08;;;;;;;7.68;4.47;;;;;;;;;;5071960;28;20517;-49
2021/01/08 13:37:34;;;;;;;7.07;4.40;;;;;;;;;;5083255;28;20036;-51
2021/01/08 13:40:02;;;;;;;6.70;3.92;;;;;;;;;;5083677;28;20073;-48
2021/01/08 13:42:28;;;;;;;8.00;4.43;;;;;;;;;;5083014;28;20387;-48
2021/01/08 13:44:54;;;;;;;7.15;4.28;;;;;;;;;;5081990;28;20014;-50
2021/01/08 13:47:20;;;;;;;6.18;4.05;;;;;;;;;;5081427;28;20039;-51
2021/01/08 13:49:46;;;;;;;8.88;5.18;;;;;;;;;;5077227;28;20387;-50
2021/01/08 13:52:12;;;;;;;8.27;4.75;;;;;;;;;;5062951;28;20062;-48
2021/01/08 13:54:38;;;;;;;9.45;4.88;;;;;;;;;;5071658;28;20523;-49
2021/01/08 13:57:04;;;;;;;7.10;4.10;;;;;;;;;;5083018;28;20432;-48
2021/01/08 13:59:30;;;;;;;8.90;4.95;;;;;;;;;;5083358;28;20119;-50
2021/01/08 14:01:57;;;;;;;7.47;4.90;;;;;;;;;;5083096;28;20561;-48
2021/01/08 14:04:24;;;;;;;9.15;4.82;;;;;;;;;;5084718;28;20521;-50
2021/01/08 14:06:51;;;;;;;9.32;5.47;;;;;;;;;;5078052;28;20498;-48
2021/01/08 14:09:18;;;;;;;8.35;5.45;;;;;;;;;;5086708;28;20111;-50
2021/01/08 14:11:44;;;;;;;7.35;4.50;;;;;;;;;;5088824;28;20024;-49
2021/01/08 14:14:10;;;;;;;7.53;4.65;;;;;;;;;;5088255;28;20054;-49
2021/01/08 14:16:40;;;;;;;9.15;4.43;;;;;;;;;;5087074;28;20363;-51
2021/01/08 14:19:06;;;;;;;9.57;5.80;;;;;;;;;;5086800;28;20081;-47
2021/01/08 14:21:34;;;;;;;9.50;5.00;;;;;;;;;;5087183;28;20020;-47
2021/01/08 14:24:01;;;;;;;12.52;5.60;;;;;;;;;;5087381;28;20028;-48